Terminal Aerodrome Forecast
Issued by NWS

Home | Current Version | Previous Version | Text Only | Print | Product List | Glossary On
Versions: 1 2 3 4 5 6 7 8 9 10 11 12 13 14 15 16 17 18 19 20 21 22 23 24 25 26 27 28 29 30 31 32 33 34 35 36 37 38 39
000
FTUS45 KBOI 272335
TAFMYL
TAF
KMYL 272335Z 2800/2824 VRB03KT 1/2SM -SN FZFG OVC015
     FM281000 VRB05KT 3SM -SN BR OVC020
     FM281800 VRB03KT 5SM -SN BR SCT020 BKN035=

USA.gov is the U.S. government's official web portal to all federal, state and local government web resources and services.